sensor_id;sensor_type;location;lat;lon;timestamp;P1;durP1;ratioP1;P2;durP2;ratioP2
68655;SDS011;55638;51.122;13.606;2023-04-07T00:00:33;7.50;;;5.95;;
68655;SDS011;55638;51.122;13.606;2023-04-07T00:02:04;9.15;;;5.93;;
68655;SDS011;55638;51.122;13.606;2023-04-07T00:03:36;6.68;;;5.75;;
68655;SDS011;55638;51.122;13.606;2023-04-07T00:05:11;7.47;;;6.13;;
68655;SDS011;55638;51.122;13.606;2023-04-07T00:06:43;7.47;;;6.00;;
68655;SDS011;55638;51.122;13.606;2023-04-07T00:08:15;8.27;;;6.03;;
68655;SDS011;55638;51.122;13.606;2023-04-07T00:09:47;7.32;;;6.22;;
68655;SDS011;55638;51.122;13.606;2023-04-07T00:11:19;7.22;;;6.03;;
68655;SDS011;55638;51.122;13.606;2023-04-07T00:12:51;9.45;;;6.47;;
68655;SDS011;55638;51.122;13.606;2023-04-07T00:14:23;7.72;;;5.57;;
68655;SDS011;55638;51.122;13.606;2023-04-07T00:15:55;7.95;;;6.35;;
68655;SDS011;55638;51.122;13.606;2023-04-07T00:17:26;12.10;;;6.25;;
68655;SDS011;55638;51.122;13.606;2023-04-07T00:18:59;7.78;;;6.40;;
68655;SDS011;55638;51.122;13.606;2023-04-07T00:20:30;9.02;;;6.32;;
68655;SDS011;55638;51.122;13.606;2023-04-07T00:22:02;9.05;;;6.60;;
68655;SDS011;55638;51.122;13.606;2023-04-07T00:23:34;8.10;;;6.20;;
68655;SDS011;55638;51.122;13.606;2023-04-07T00:25:06;8.45;;;6.72;;
68655;SDS011;55638;51.122;13.606;2023-04-07T00:26:38;7.47;;;6.22;;
68655;SDS011;55638;51.122;13.606;2023-04-07T00:28:10;7.68;;;6.35;;
68655;SDS011;55638;51.122;13.606;2023-04-07T00:29:42;7.85;;;6.47;;
68655;SDS011;55638;51.122;13.606;2023-04-07T00:31:17;8.73;;;6.80;;
68655;SDS011;55638;51.122;13.606;2023-04-07T00:32:49;8.30;;;6.60;;
68655;SDS011;55638;51.122;13.606;2023-04-07T00:34:22;9.98;;;7.07;;
68655;SDS011;55638;51.122;13.606;2023-04-07T00:35:54;8.90;;;6.70;;
68655;SDS011;55638;51.122;13.606;2023-04-07T00:37:28;8.30;;;6.35;;
68655;SDS011;55638;51.122;13.606;2023-04-07T00:39:00;10.13;;;6.90;;
68655;SDS011;55638;51.122;13.606;2023-04-07T00:40:32;8.95;;;6.97;;
68655;SDS011;55638;51.122;13.606;2023-04-07T00:42:05;9.45;;;6.68;;
68655;SDS011;55638;51.122;13.606;2023-04-07T00:43:37;9.60;;;6.60;;
68655;SDS011;55638;51.122;13.606;2023-04-07T00:45:09;7.75;;;6.53;;
68655;SDS011;55638;51.122;13.606;2023-04-07T00:46:42;9.55;;;6.93;;
68655;SDS011;55638;51.122;13.606;2023-04-07T00:48:14;9.10;;;6.55;;
68655;SDS011;55638;51.122;13.606;2023-04-07T00:49:45;8.77;;;6.53;;
68655;SDS011;55638;51.122;13.606;2023-04-07T00:51:21;7.90;;;6.00;;
68655;SDS011;55638;51.122;13.606;2023-04-07T00:52:53;8.00;;;6.18;;
68655;SDS011;55638;51.122;13.606;2023-04-07T00:54:28;9.02;;;5.80;;
68655;SDS011;55638;51.122;13.606;2023-04-07T00:56:01;7.35;;;5.70;;
68655;SDS011;55638;51.122;13.606;2023-04-07T01:02:18;7.90;;;5.75;;
68655;SDS011;55638;51.122;13.606;2023-04-07T01:04:00;7.43;;;5.10;;
68655;SDS011;55638;51.122;13.606;2023-04-07T01:05:45;8.27;;;5.70;;
68655;SDS011;55638;51.122;13.606;2023-04-07T01:07:26;7.80;;;5.10;;
68655;SDS011;55638;51.122;13.606;2023-04-07T01:09:18;6.68;;;4.97;;
68655;SDS011;55638;51.122;13.606;2023-04-07T01:11:04;6.45;;;5.25;;
68655;SDS011;55638;51.122;13.606;2023-04-07T01:12:55;6.43;;;4.65;;
68655;SDS011;55638;51.122;13.606;2023-04-07T01:16:47;5.82;;;4.68;;
68655;SDS011;55638;51.122;13.606;2023-04-07T01:18:25;6.88;;;4.55;;
68655;SDS011;55638;51.122;13.606;2023-04-07T01:20:02;6.57;;;4.93;;
68655;SDS011;55638;51.122;13.606;2023-04-07T01:21:39;6.38;;;5.25;;
68655;SDS011;55638;51.122;13.606;2023-04-07T01:23:16;6.78;;;4.90;;
68655;SDS011;55638;51.122;13.606;2023-04-07T01:31:04;6.13;;;4.60;;
68655;SDS011;55638;51.122;13.606;2023-04-07T01:32:39;7.93;;;4.47;;
68655;SDS011;55638;51.122;13.606;2023-04-07T01:34:14;6.75;;;4.97;;
68655;SDS011;55638;51.122;13.606;2023-04-07T01:35:48;6.00;;;4.90;;
68655;SDS011;55638;51.122;13.606;2023-04-07T01:37:22;7.38;;;5.18;;
68655;SDS011;55638;51.122;13.606;2023-04-07T01:38:57;5.43;;;4.38;;
68655;SDS011;55638;51.122;13.606;2023-04-07T01:40:30;6.38;;;4.65;;
68655;SDS011;55638;51.122;13.606;2023-04-07T01:42:04;8.93;;;5.57;;
68655;SDS011;55638;51.122;13.606;2023-04-07T01:43:37;6.28;;;4.82;;
68655;SDS011;55638;51.122;13.606;2023-04-07T01:45:12;7.20;;;5.20;;
68655;SDS011;55638;51.122;13.606;2023-04-07T01:46:47;6.18;;;4.75;;
68655;SDS011;55638;51.122;13.606;2023-04-07T01:48:21;5.65;;;4.53;;
68655;SDS011;55638;51.122;13.606;2023-04-07T01:49:53;7.53;;;4.68;;
68655;SDS011;55638;51.122;13.606;2023-04-07T01:51:26;5.05;;;4.43;;
68655;SDS011;55638;51.122;13.606;2023-04-07T01:53:01;6.45;;;4.53;;
68655;SDS011;55638;51.122;13.606;2023-04-07T01:54:34;6.40;;;5.05;;
68655;SDS011;55638;51.122;13.606;2023-04-07T01:56:06;6.80;;;4.53;;
68655;SDS011;55638;51.122;13.606;2023-04-07T01:57:40;6.65;;;4.70;;
68655;SDS011;55638;51.122;13.606;2023-04-07T01:59:21;4.65;;;3.50;;
68655;SDS011;55638;51.122;13.606;2023-04-07T02:00:53;6.05;;;4.65;;
68655;SDS011;55638;51.122;13.606;2023-04-07T02:02:27;7.45;;;5.10;;
68655;SDS011;55638;51.122;13.606;2023-04-07T02:04:21;5.82;;;4.72;;
68655;SDS011;55638;51.122;13.606;2023-04-07T02:05:56;5.93;;;3.97;;
68655;SDS011;55638;51.122;13.606;2023-04-07T02:07:47;4.95;;;4.25;;
68655;SDS011;55638;51.122;13.606;2023-04-07T02:09:22;6.10;;;4.88;;
68655;SDS011;55638;51.122;13.606;2023-04-07T02:10:57;6.43;;;4.50;;
68655;SDS011;55638;51.122;13.606;2023-04-07T02:12:36;4.88;;;4.25;;
68655;SDS011;55638;51.122;13.606;2023-04-07T02:14:15;5.00;;;4.22;;
68655;SDS011;55638;51.122;13.606;2023-04-07T02:16:00;6.53;;;4.72;;
68655;SDS011;55638;51.122;13.606;2023-04-07T02:17:33;8.32;;;5.45;;
68655;SDS011;55638;51.122;13.606;2023-04-07T02:19:08;6.10;;;4.80;;
68655;SDS011;55638;51.122;13.606;2023-04-07T02:20:41;8.20;;;4.68;;
68655;SDS011;55638;51.122;13.606;2023-04-07T02:22:15;5.95;;;5.03;;
68655;SDS011;55638;51.122;13.606;2023-04-07T02:23:47;6.35;;;4.63;;
68655;SDS011;55638;51.122;13.606;2023-04-07T02:25:20;6.65;;;4.47;;
68655;SDS011;55638;51.122;13.606;2023-04-07T02:26:53;7.13;;;5.00;;
68655;SDS011;55638;51.122;13.606;2023-04-07T02:28:25;5.95;;;4.78;;
68655;SDS011;55638;51.122;13.606;2023-04-07T02:29:56;6.15;;;4.50;;
68655;SDS011;55638;51.122;13.606;2023-04-07T02:31:28;6.00;;;4.30;;
68655;SDS011;55638;51.122;13.606;2023-04-07T02:33:00;6.20;;;4.43;;
68655;SDS011;55638;51.122;13.606;2023-04-07T02:34:32;6.00;;;4.00;;
68655;SDS011;55638;51.122;13.606;2023-04-07T02:36:04;5.80;;;4.28;;
68655;SDS011;55638;51.122;13.606;2023-04-07T02:37:36;6.05;;;4.53;;
68655;SDS011;55638;51.122;13.606;2023-04-07T02:39:08;5.45;;;4.07;;
68655;SDS011;55638;51.122;13.606;2023-04-07T02:40:41;4.65;;;4.00;;
68655;SDS011;55638;51.122;13.606;2023-04-07T02:42:12;5.60;;;4.18;;
68655;SDS011;55638;51.122;13.606;2023-04-07T02:43:44;5.82;;;4.50;;
68655;SDS011;55638;51.122;13.606;2023-04-07T02:45:16;6.03;;;4.28;;
68655;SDS011;55638;51.122;13.606;2023-04-07T02:46:48;5.90;;;4.30;;
68655;SDS011;55638;51.122;13.606;2023-04-07T02:48:20;5.50;;;4.10;;
68655;SDS011;55638;51.122;13.606;2023-04-07T02:49:51;6.10;;;3.97;;
68655;SDS011;55638;51.122;13.606;2023-04-07T02:51:23;5.82;;;4.57;;
68655;SDS011;55638;51.122;13.606;2023-04-07T02:52:55;5.10;;;4.15;;
68655;SDS011;55638;51.122;13.606;2023-04-07T02:54:27;5.10;;;4.30;;
68655;SDS011;55638;51.122;13.606;2023-04-07T02:55:59;5.30;;;4.28;;
68655;SDS011;55638;51.122;13.606;2023-04-07T02:57:33;5.00;;;4.10;;
68655;SDS011;55638;51.122;13.606;2023-04-07T02:59:08;8.65;;;4.20;;
68655;SDS011;55638;51.122;13.606;2023-04-07T03:00:44;5.30;;;4.00;;
68655;SDS011;55638;51.122;13.606;2023-04-07T03:02:24;6.03;;;4.20;;
68655;SDS011;55638;51.122;13.606;2023-04-07T03:03:56;6.65;;;4.50;;
68655;SDS011;55638;51.122;13.606;2023-04-07T03:05:29;5.07;;;3.92;;
68655;SDS011;55638;51.122;13.606;2023-04-07T03:07:02;5.53;;;4.25;;
68655;SDS011;55638;51.122;13.606;2023-04-07T03:08:35;4.88;;;3.90;;
68655;SDS011;55638;51.122;13.606;2023-04-07T03:10:08;5.07;;;3.97;;
68655;SDS011;55638;51.122;13.606;2023-04-07T03:11:41;5.05;;;3.83;;
68655;SDS011;55638;51.122;13.606;2023-04-07T03:13:13;5.43;;;4.18;;
68655;SDS011;55638;51.122;13.606;2023-04-07T03:14:47;7.65;;;4.25;;
68655;SDS011;55638;51.122;13.606;2023-04-07T03:16:19;5.70;;;4.30;;
68655;SDS011;55638;51.122;13.606;2023-04-07T03:18:17;5.85;;;4.03;;
68655;SDS011;55638;51.122;13.606;2023-04-07T03:19:50;5.65;;;3.88;;
68655;SDS011;55638;51.122;13.606;2023-04-07T03:21:23;5.82;;;4.10;;
68655;SDS011;55638;51.122;13.606;2023-04-07T03:22:55;5.95;;;4.55;;
68655;SDS011;55638;51.122;13.606;2023-04-07T03:24:30;5.30;;;4.32;;
68655;SDS011;55638;51.122;13.606;2023-04-07T03:26:03;5.10;;;4.20;;
68655;SDS011;55638;51.122;13.606;2023-04-07T03:27:38;4.82;;;4.00;;
68655;SDS011;55638;51.122;13.606;2023-04-07T03:29:13;5.15;;;4.15;;
68655;SDS011;55638;51.122;13.606;2023-04-07T03:30:46;6.85;;;4.53;;
68655;SDS011;55638;51.122;13.606;2023-04-07T03:32:18;4.70;;;3.83;;
68655;SDS011;55638;51.122;13.606;2023-04-07T03:33:50;5.75;;;3.88;;
68655;SDS011;55638;51.122;13.606;2023-04-07T03:35:23;6.60;;;3.75;;
68655;SDS011;55638;51.122;13.606;2023-04-07T03:36:54;4.75;;;4.22;;
68655;SDS011;55638;51.122;13.606;2023-04-07T03:38:27;6.20;;;4.25;;
68655;SDS011;55638;51.122;13.606;2023-04-07T03:40:03;5.28;;;3.67;;
68655;SDS011;55638;51.122;13.606;2023-04-07T03:41:39;4.63;;;4.00;;
68655;SDS011;55638;51.122;13.606;2023-04-07T03:43:11;6.10;;;4.22;;
68655;SDS011;55638;51.122;13.606;2023-04-07T03:44:44;4.30;;;3.85;;
68655;SDS011;55638;51.122;13.606;2023-04-07T03:46:18;5.07;;;3.72;;
68655;SDS011;55638;51.122;13.606;2023-04-07T03:47:51;4.38;;;3.53;;
68655;SDS011;55638;51.122;13.606;2023-04-07T03:49:26;4.45;;;3.53;;
68655;SDS011;55638;51.122;13.606;2023-04-07T03:50:59;5.38;;;3.78;;
68655;SDS011;55638;51.122;13.606;2023-04-07T03:52:32;5.30;;;3.63;;
68655;SDS011;55638;51.122;13.606;2023-04-07T03:54:12;4.30;;;3.65;;
68655;SDS011;55638;51.122;13.606;2023-04-07T03:55:47;4.85;;;3.83;;
68655;SDS011;55638;51.122;13.606;2023-04-07T03:57:28;4.30;;;3.72;;
68655;SDS011;55638;51.122;13.606;2023-04-07T03:58:59;6.28;;;3.95;;
68655;SDS011;55638;51.122;13.606;2023-04-07T04:00:36;4.85;;;3.65;;
68655;SDS011;55638;51.122;13.606;2023-04-07T04:02:13;5.28;;;3.70;;
68655;SDS011;55638;51.122;13.606;2023-04-07T04:03:45;5.18;;;3.70;;
68655;SDS011;55638;51.122;13.606;2023-04-07T04:05:28;4.25;;;3.58;;
68655;SDS011;55638;51.122;13.606;2023-04-07T04:07:01;5.05;;;3.78;;
68655;SDS011;55638;51.122;13.606;2023-04-07T04:08:48;5.13;;;3.40;;
68655;SDS011;55638;51.122;13.606;2023-04-07T04:10:21;4.75;;;3.40;;
68655;SDS011;55638;51.122;13.606;2023-04-07T04:11:56;4.63;;;3.65;;
68655;SDS011;55638;51.122;13.606;2023-04-07T04:13:28;4.32;;;3.35;;
68655;SDS011;55638;51.122;13.606;2023-04-07T04:15:02;5.22;;;3.85;;
68655;SDS011;55638;51.122;13.606;2023-04-07T04:16:34;4.72;;;3.78;;
68655;SDS011;55638;51.122;13.606;2023-04-07T04:18:12;4.38;;;3.85;;
68655;SDS011;55638;51.122;13.606;2023-04-07T04:19:44;4.05;;;3.40;;
68655;SDS011;55638;51.122;13.606;2023-04-07T04:21:24;5.07;;;3.70;;
68655;SDS011;55638;51.122;13.606;2023-04-07T04:22:57;5.32;;;3.70;;
68655;SDS011;55638;51.122;13.606;2023-04-07T04:24:29;4.72;;;3.83;;
68655;SDS011;55638;51.122;13.606;2023-04-07T04:26:05;4.97;;;3.17;;
68655;SDS011;55638;51.122;13.606;2023-04-07T04:27:37;4.18;;;3.40;;
68655;SDS011;55638;51.122;13.606;2023-04-07T04:29:16;4.95;;;3.75;;
68655;SDS011;55638;51.122;13.606;2023-04-07T04:30:49;5.03;;;3.28;;
68655;SDS011;55638;51.122;13.606;2023-04-07T04:32:21;5.32;;;3.63;;
68655;SDS011;55638;51.122;13.606;2023-04-07T04:33:53;3.95;;;3.45;;
68655;SDS011;55638;51.122;13.606;2023-04-07T04:35:27;4.22;;;3.25;;
68655;SDS011;55638;51.122;13.606;2023-04-07T04:37:12;4.38;;;3.45;;
68655;SDS011;55638;51.122;13.606;2023-04-07T04:38:47;4.50;;;3.80;;
68655;SDS011;55638;51.122;13.606;2023-04-07T04:40:22;4.68;;;3.38;;
68655;SDS011;55638;51.122;13.606;2023-04-07T04:41:55;4.90;;;3.47;;
68655;SDS011;55638;51.122;13.606;2023-04-07T04:43:34;3.65;;;2.85;;
68655;SDS011;55638;51.122;13.606;2023-04-07T04:45:08;6.32;;;3.53;;
68655;SDS011;55638;51.122;13.606;2023-04-07T04:46:41;4.43;;;3.25;;
68655;SDS011;55638;51.122;13.606;2023-04-07T04:48:13;3.95;;;3.30;;
68655;SDS011;55638;51.122;13.606;2023-04-07T04:49:46;5.00;;;3.50;;
68655;SDS011;55638;51.122;13.606;2023-04-07T04:51:17;3.97;;;2.92;;
68655;SDS011;55638;51.122;13.606;2023-04-07T04:52:54;4.75;;;3.65;;
68655;SDS011;55638;51.122;13.606;2023-04-07T04:54:27;4.90;;;3.22;;
68655;SDS011;55638;51.122;13.606;2023-04-07T04:56:00;5.07;;;3.55;;
68655;SDS011;55638;51.122;13.606;2023-04-07T04:57:44;4.65;;;3.35;;
68655;SDS011;55638;51.122;13.606;2023-04-07T04:59:22;4.38;;;3.15;;
68655;SDS011;55638;51.122;13.606;2023-04-07T05:01:02;4.65;;;3.17;;
68655;SDS011;55638;51.122;13.606;2023-04-07T05:02:41;4.40;;;3.30;;
68655;SDS011;55638;51.122;13.606;2023-04-07T05:04:14;4.43;;;3.38;;
68655;SDS011;55638;51.122;13.606;2023-04-07T05:05:53;5.75;;;3.35;;
68655;SDS011;55638;51.122;13.606;2023-04-07T05:07:27;4.50;;;3.30;;
68655;SDS011;55638;51.122;13.606;2023-04-07T05:08:59;3.90;;;3.10;;
68655;SDS011;55638;51.122;13.606;2023-04-07T05:10:37;5.75;;;3.90;;
68655;SDS011;55638;51.122;13.606;2023-04-07T05:12:14;5.22;;;3.53;;
68655;SDS011;55638;51.122;13.606;2023-04-07T05:13:51;4.82;;;3.58;;
68655;SDS011;55638;51.122;13.606;2023-04-07T05:15:24;5.45;;;4.18;;
68655;SDS011;55638;51.122;13.606;2023-04-07T05:16:57;4.63;;;3.55;;
68655;SDS011;55638;51.122;13.606;2023-04-07T05:18:31;6.38;;;4.50;;
68655;SDS011;55638;51.122;13.606;2023-04-07T05:20:04;6.13;;;4.18;;
68655;SDS011;55638;51.122;13.606;2023-04-07T05:21:41;7.10;;;4.28;;
68655;SDS011;55638;51.122;13.606;2023-04-07T05:23:13;6.43;;;4.43;;
68655;SDS011;55638;51.122;13.606;2023-04-07T05:24:47;5.47;;;4.00;;
68655;SDS011;55638;51.122;13.606;2023-04-07T05:26:18;7.38;;;4.47;;
68655;SDS011;55638;51.122;13.606;2023-04-07T05:27:53;7.10;;;4.88;;
68655;SDS011;55638;51.122;13.606;2023-04-07T05:29:25;6.65;;;4.65;;
68655;SDS011;55638;51.122;13.606;2023-04-07T05:30:58;6.45;;;4.20;;
68655;SDS011;55638;51.122;13.606;2023-04-07T05:32:35;6.75;;;4.30;;
68655;SDS011;55638;51.122;13.606;2023-04-07T05:34:13;5.65;;;3.90;;
68655;SDS011;55638;51.122;13.606;2023-04-07T05:35:51;5.03;;;3.80;;
68655;SDS011;55638;51.122;13.606;2023-04-07T05:37:23;6.80;;;4.30;;
68655;SDS011;55638;51.122;13.606;2023-04-07T05:38:56;4.63;;;3.65;;
68655;SDS011;55638;51.122;13.606;2023-04-07T05:40:28;4.20;;;3.40;;
68655;SDS011;55638;51.122;13.606;2023-04-07T05:42:07;4.15;;;3.40;;
68655;SDS011;55638;51.122;13.606;2023-04-07T05:43:40;5.10;;;3.88;;
68655;SDS011;55638;51.122;13.606;2023-04-07T05:45:12;4.88;;;3.70;;
68655;SDS011;55638;51.122;13.606;2023-04-07T05:46:48;4.30;;;3.35;;
68655;SDS011;55638;51.122;13.606;2023-04-07T05:48:22;4.78;;;3.70;;
68655;SDS011;55638;51.122;13.606;2023-04-07T05:49:54;3.40;;;3.10;;
68655;SDS011;55638;51.122;13.606;2023-04-07T05:51:26;5.00;;;3.70;;
68655;SDS011;55638;51.122;13.606;2023-04-07T05:52:59;4.75;;;3.67;;
68655;SDS011;55638;51.122;13.606;2023-04-07T05:54:31;4.63;;;3.47;;
68655;SDS011;55638;51.122;13.606;2023-04-07T05:56:05;5.15;;;3.53;;
68655;SDS011;55638;51.122;13.606;2023-04-07T05:57:49;4.55;;;3.15;;
68655;SDS011;55638;51.122;13.606;2023-04-07T05:59:24;6.28;;;3.83;;
68655;SDS011;55638;51.122;13.606;2023-04-07T06:00:57;5.28;;;3.55;;
68655;SDS011;55638;51.122;13.606;2023-04-07T06:02:29;4.97;;;3.67;;
68655;SDS011;55638;51.122;13.606;2023-04-07T06:04:02;5.75;;;4.22;;
68655;SDS011;55638;51.122;13.606;2023-04-07T06:05:34;6.55;;;4.05;;
68655;SDS011;55638;51.122;13.606;2023-04-07T06:07:06;4.15;;;3.50;;
68655;SDS011;55638;51.122;13.606;2023-04-07T06:08:38;5.00;;;3.85;;
68655;SDS011;55638;51.122;13.606;2023-04-07T06:10:10;6.90;;;4.43;;
68655;SDS011;55638;51.122;13.606;2023-04-07T06:11:42;5.28;;;4.32;;
68655;SDS011;55638;51.122;13.606;2023-04-07T06:13:14;6.72;;;4.72;;
68655;SDS011;55638;51.122;13.606;2023-04-07T06:14:51;5.70;;;4.60;;
68655;SDS011;55638;51.122;13.606;2023-04-07T06:16:25;6.68;;;4.90;;
68655;SDS011;55638;51.122;13.606;2023-04-07T06:17:57;5.75;;;3.90;;
68655;SDS011;55638;51.122;13.606;2023-04-07T06:19:29;5.57;;;4.10;;
68655;SDS011;55638;51.122;13.606;2023-04-07T06:21:01;5.18;;;4.00;;
68655;SDS011;55638;51.122;13.606;2023-04-07T06:22:33;4.75;;;4.13;;
68655;SDS011;55638;51.122;13.606;2023-04-07T06:24:04;5.65;;;4.30;;
68655;SDS011;55638;51.122;13.606;2023-04-07T06:25:38;4.85;;;4.13;;
68655;SDS011;55638;51.122;13.606;2023-04-07T06:27:10;5.05;;;4.22;;
68655;SDS011;55638;51.122;13.606;2023-04-07T06:28:43;5.13;;;4.50;;
68655;SDS011;55638;51.122;13.606;2023-04-07T06:30:15;6.38;;;4.70;;
68655;SDS011;55638;51.122;13.606;2023-04-07T06:31:47;6.85;;;4.82;;
68655;SDS011;55638;51.122;13.606;2023-04-07T06:33:19;6.50;;;4.60;;
68655;SDS011;55638;51.122;13.606;2023-04-07T06:34:56;6.13;;;4.57;;
68655;SDS011;55638;51.122;13.606;2023-04-07T06:36:28;6.72;;;4.65;;
68655;SDS011;55638;51.122;13.606;2023-04-07T06:38:00;5.88;;;4.85;;
68655;SDS011;55638;51.122;13.606;2023-04-07T06:39:32;5.28;;;4.65;;
68655;SDS011;55638;51.122;13.606;2023-04-07T06:41:04;8.68;;;4.90;;
68655;SDS011;55638;51.122;13.606;2023-04-07T06:42:36;6.55;;;5.07;;
68655;SDS011;55638;51.122;13.606;2023-04-07T06:44:14;6.43;;;4.72;;
68655;SDS011;55638;51.122;13.606;2023-04-07T06:45:47;6.25;;;4.85;;
68655;SDS011;55638;51.122;13.606;2023-04-07T06:47:19;5.53;;;4.40;;
68655;SDS011;55638;51.122;13.606;2023-04-07T06:48:51;6.90;;;4.75;;
68655;SDS011;55638;51.122;13.606;2023-04-07T06:50:23;6.40;;;5.05;;
68655;SDS011;55638;51.122;13.606;2023-04-07T06:51:56;7.13;;;5.05;;
68655;SDS011;55638;51.122;13.606;2023-04-07T06:53:27;8.13;;;5.10;;
68655;SDS011;55638;51.122;13.606;2023-04-07T06:54:59;7.10;;;5.40;;
68655;SDS011;55638;51.122;13.606;2023-04-07T06:56:32;6.63;;;5.00;;
68655;SDS011;55638;51.122;13.606;2023-04-07T06:58:04;6.35;;;5.47;;
68655;SDS011;55638;51.122;13.606;2023-04-07T06:59:36;7.07;;;5.03;;
68655;SDS011;55638;51.122;13.606;2023-04-07T07:01:08;5.88;;;4.53;;
68655;SDS011;55638;51.122;13.606;2023-04-07T07:02:40;8.15;;;5.25;;
68655;SDS011;55638;51.122;13.606;2023-04-07T07:04:12;6.55;;;4.88;;
68655;SDS011;55638;51.122;13.606;2023-04-07T07:05:44;6.00;;;4.70;;
68655;SDS011;55638;51.122;13.606;2023-04-07T07:07:16;6.93;;;5.43;;
68655;SDS011;55638;51.122;13.606;2023-04-07T07:08:48;8.00;;;4.95;;
68655;SDS011;55638;51.122;13.606;2023-04-07T07:10:20;6.40;;;5.20;;
68655;SDS011;55638;51.122;13.606;2023-04-07T07:11:53;5.80;;;4.95;;
68655;SDS011;55638;51.122;13.606;2023-04-07T07:13:25;9.57;;;5.10;;
68655;SDS011;55638;51.122;13.606;2023-04-07T07:14:58;7.57;;;5.03;;
68655;SDS011;55638;51.122;13.606;2023-04-07T07:16:30;7.90;;;5.35;;
68655;SDS011;55638;51.122;13.606;2023-04-07T07:18:03;7.35;;;5.13;;
68655;SDS011;55638;51.122;13.606;2023-04-07T07:19:35;6.90;;;4.93;;
68655;SDS011;55638;51.122;13.606;2023-04-07T07:21:07;7.18;;;5.30;;
68655;SDS011;55638;51.122;13.606;2023-04-07T07:22:39;6.72;;;5.07;;
68655;SDS011;55638;51.122;13.606;2023-04-07T07:24:12;6.85;;;5.43;;
68655;SDS011;55638;51.122;13.606;2023-04-07T07:25:44;7.10;;;5.05;;
68655;SDS011;55638;51.122;13.606;2023-04-07T07:27:16;5.70;;;4.95;;
68655;SDS011;55638;51.122;13.606;2023-04-07T07:28:47;7.82;;;5.65;;
68655;SDS011;55638;51.122;13.606;2023-04-07T07:30:20;7.43;;;5.35;;
68655;SDS011;55638;51.122;13.606;2023-04-07T07:31:53;8.13;;;5.70;;
68655;SDS011;55638;51.122;13.606;2023-04-07T07:33:26;6.97;;;5.32;;
68655;SDS011;55638;51.122;13.606;2023-04-07T07:34:59;6.18;;;5.18;;
68655;SDS011;55638;51.122;13.606;2023-04-07T07:36:31;8.43;;;4.75;;
68655;SDS011;55638;51.122;13.606;2023-04-07T07:38:03;5.57;;;4.93;;
68655;SDS011;55638;51.122;13.606;2023-04-07T07:39:35;6.85;;;5.45;;
68655;SDS011;55638;51.122;13.606;2023-04-07T07:41:08;6.68;;;5.18;;
68655;SDS011;55638;51.122;13.606;2023-04-07T07:42:40;7.93;;;5.82;;
68655;SDS011;55638;51.122;13.606;2023-04-07T07:44:12;7.82;;;5.80;;
68655;SDS011;55638;51.122;13.606;2023-04-07T07:45:43;7.22;;;5.72;;
68655;SDS011;55638;51.122;13.606;2023-04-07T07:47:17;7.43;;;5.53;;
68655;SDS011;55638;51.122;13.606;2023-04-07T07:48:49;8.25;;;5.70;;
68655;SDS011;55638;51.122;13.606;2023-04-07T07:50:20;7.20;;;5.47;;
68655;SDS011;55638;51.122;13.606;2023-04-07T07:51:53;7.95;;;5.82;;
68655;SDS011;55638;51.122;13.606;2023-04-07T07:53:25;7.95;;;5.85;;
68655;SDS011;55638;51.122;13.606;2023-04-07T07:54:56;7.75;;;5.82;;
68655;SDS011;55638;51.122;13.606;2023-04-07T07:56:28;7.60;;;5.90;;
68655;SDS011;55638;51.122;13.606;2023-04-07T07:58:00;7.90;;;5.80;;
68655;SDS011;55638;51.122;13.606;2023-04-07T07:59:32;6.00;;;5.20;;
68655;SDS011;55638;51.122;13.606;2023-04-07T08:01:04;7.53;;;6.00;;
68655;SDS011;55638;51.122;13.606;2023-04-07T08:02:36;8.65;;;5.55;;
68655;SDS011;55638;51.122;13.606;2023-04-07T08:04:09;7.00;;;6.10;;
68655;SDS011;55638;51.122;13.606;2023-04-07T08:05:42;6.53;;;5.25;;
68655;SDS011;55638;51.122;13.606;2023-04-07T08:07:14;7.45;;;5.75;;
68655;SDS011;55638;51.122;13.606;2023-04-07T08:08:46;8.32;;;5.82;;
68655;SDS011;55638;51.122;13.606;2023-04-07T08:10:18;7.38;;;5.60;;
68655;SDS011;55638;51.122;13.606;2023-04-07T08:11:51;7.43;;;5.60;;
68655;SDS011;55638;51.122;13.606;2023-04-07T08:13:23;6.72;;;5.18;;
68655;SDS011;55638;51.122;13.606;2023-04-07T08:14:55;7.90;;;5.95;;
68655;SDS011;55638;51.122;13.606;2023-04-07T08:16:27;7.80;;;5.90;;
68655;SDS011;55638;51.122;13.606;2023-04-07T08:17:59;6.22;;;5.32;;
68655;SDS011;55638;51.122;13.606;2023-04-07T08:19:33;8.07;;;5.82;;
68655;SDS011;55638;51.122;13.606;2023-04-07T08:21:05;7.50;;;5.63;;
68655;SDS011;55638;51.122;13.606;2023-04-07T08:22:37;7.38;;;5.85;;
68655;SDS011;55638;51.122;13.606;2023-04-07T08:24:10;8.77;;;6.65;;
68655;SDS011;55638;51.122;13.606;2023-04-07T08:25:42;7.18;;;6.40;;
68655;SDS011;55638;51.122;13.606;2023-04-07T08:27:14;7.35;;;5.90;;
68655;SDS011;55638;51.122;13.606;2023-04-07T08:28:46;7.57;;;6.45;;
68655;SDS011;55638;51.122;13.606;2023-04-07T08:30:19;6.90;;;6.18;;
68655;SDS011;55638;51.122;13.606;2023-04-07T08:31:54;7.32;;;5.80;;
68655;SDS011;55638;51.122;13.606;2023-04-07T08:33:26;7.45;;;5.70;;
68655;SDS011;55638;51.122;13.606;2023-04-07T08:34:58;6.88;;;5.72;;
68655;SDS011;55638;51.122;13.606;2023-04-07T08:36:30;6.40;;;5.57;;
68655;SDS011;55638;51.122;13.606;2023-04-07T08:38:02;6.47;;;5.60;;
68655;SDS011;55638;51.122;13.606;2023-04-07T08:39:34;7.72;;;5.90;;
68655;SDS011;55638;51.122;13.606;2023-04-07T08:41:07;7.75;;;4.72;;
68655;SDS011;55638;51.122;13.606;2023-04-07T08:42:44;6.32;;;4.90;;
68655;SDS011;55638;51.122;13.606;2023-04-07T08:44:18;6.65;;;5.00;;
68655;SDS011;55638;51.122;13.606;2023-04-07T08:45:52;6.35;;;4.88;;
68655;SDS011;55638;51.122;13.606;2023-04-07T08:47:29;6.88;;;4.78;;
68655;SDS011;55638;51.122;13.606;2023-04-07T08:49:03;7.35;;;4.78;;
68655;SDS011;55638;51.122;13.606;2023-04-07T08:50:41;6.78;;;4.80;;
68655;SDS011;55638;51.122;13.606;2023-04-07T08:52:15;7.43;;;5.18;;
68655;SDS011;55638;51.122;13.606;2023-04-07T08:53:53;6.35;;;4.88;;
68655;SDS011;55638;51.122;13.606;2023-04-07T08:55:28;5.32;;;4.65;;
68655;SDS011;55638;51.122;13.606;2023-04-07T08:57:00;6.22;;;4.85;;
68655;SDS011;55638;51.122;13.606;2023-04-07T08:58:34;5.03;;;4.53;;
68655;SDS011;55638;51.122;13.606;2023-04-07T09:00:07;7.50;;;4.63;;
68655;SDS011;55638;51.122;13.606;2023-04-07T09:01:40;5.10;;;3.90;;
68655;SDS011;55638;51.122;13.606;2023-04-07T09:03:12;7.45;;;5.03;;
68655;SDS011;55638;51.122;13.606;2023-04-07T09:04:45;5.75;;;4.93;;
68655;SDS011;55638;51.122;13.606;2023-04-07T09:06:17;7.85;;;5.50;;
68655;SDS011;55638;51.122;13.606;2023-04-07T09:07:49;6.30;;;5.18;;
68655;SDS011;55638;51.122;13.606;2023-04-07T09:09:21;5.45;;;4.43;;
68655;SDS011;55638;51.122;13.606;2023-04-07T09:10:55;7.13;;;5.18;;
68655;SDS011;55638;51.122;13.606;2023-04-07T09:12:28;6.07;;;4.63;;
68655;SDS011;55638;51.122;13.606;2023-04-07T09:14:00;7.63;;;4.70;;
68655;SDS011;55638;51.122;13.606;2023-04-07T09:15:32;7.25;;;4.93;;
68655;SDS011;55638;51.122;13.606;2023-04-07T09:17:04;7.50;;;4.82;;
68655;SDS011;55638;51.122;13.606;2023-04-07T09:18:36;8.10;;;4.32;;
68655;SDS011;55638;51.122;13.606;2023-04-07T09:20:08;6.95;;;5.68;;
68655;SDS011;55638;51.122;13.606;2023-04-07T09:21:50;5.57;;;4.60;;
68655;SDS011;55638;51.122;13.606;2023-04-07T09:23:35;5.57;;;3.97;;
68655;SDS011;55638;51.122;13.606;2023-04-07T09:25:10;5.75;;;4.30;;
68655;SDS011;55638;51.122;13.606;2023-04-07T09:26:43;6.72;;;4.60;;
68655;SDS011;55638;51.122;13.606;2023-04-07T09:28:15;6.07;;;5.00;;
68655;SDS011;55638;51.122;13.606;2023-04-07T09:29:47;6.13;;;5.05;;